sensor_id;sensor_type;location;lat;lon;timestamp;pressure;altitude;pressure_sealevel;temperature;humidity
69405;BME280;57084;52.046;5.632;2023-01-15T00:00:00;99710;;;9.5;74.5
69405;BME280;57084;52.046;5.632;2023-01-15T00:01:00;99710;;;9.5;74.5
69405;BME280;57084;52.046;5.632;2023-01-15T00:02:00;99710;;;9.5;74.6
69405;BME280;57084;52.046;5.632;2023-01-15T00:03:00;99710;;;9.5;74.6
69405;BME280;57084;52.046;5.632;2023-01-15T00:04:00;99700;;;9.5;74.4
69405;BME280;57084;52.046;5.632;2023-01-15T00:05:00;99700;;;9.5;74.4
69405;BME280;57084;52.046;5.632;2023-01-15T00:06:00;99700;;;9.5;74.4
69405;BME280;57084;52.046;5.632;2023-01-15T00:07:00;99700;;;9.5;74.4
69405;BME280;57084;52.046;5.632;2023-01-15T00:08:00;99710;;;9.5;74.5
69405;BME280;57084;52.046;5.632;2023-01-15T00:09:00;99710;;;9.5;74.5
69405;BME280;57084;52.046;5.632;2023-01-15T00:10:00;99710;;;9.5;74.3
69405;BME280;57084;52.046;5.632;2023-01-15T00:11:01;99710;;;9.5;74.3
69405;BME280;57084;52.046;5.632;2023-01-15T00:12:00;99710;;;9.5;74.3
69405;BME280;57084;52.046;5.632;2023-01-15T00:13:00;99710;;;9.5;74.3
69405;BME280;57084;52.046;5.632;2023-01-15T00:14:00;99710;;;9.5;74.1
69405;BME280;57084;52.046;5.632;2023-01-15T00:15:00;99710;;;9.5;74.1
69405;BME280;57084;52.046;5.632;2023-01-15T00:16:01;99710;;;9.5;74.2
69405;BME280;57084;52.046;5.632;2023-01-15T00:17:00;99710;;;9.5;74.2
69405;BME280;57084;52.046;5.632;2023-01-15T00:18:00;99720;;;9.5;74.2
69405;BME280;57084;52.046;5.632;2023-01-15T00:19:00;99720;;;9.5;74.2
69405;BME280;57084;52.046;5.632;2023-01-15T00:20:00;99720;;;9.4;74.0
69405;BME280;57084;52.046;5.632;2023-01-15T00:21:00;99720;;;9.4;74.0
69405;BME280;57084;52.046;5.632;2023-01-15T00:22:00;99720;;;9.4;74.1
69405;BME280;57084;52.046;5.632;2023-01-15T00:23:00;99720;;;9.4;74.1
69405;BME280;57084;52.046;5.632;2023-01-15T00:24:00;99720;;;9.4;73.9
69405;BME280;57084;52.046;5.632;2023-01-15T00:25:00;99720;;;9.4;73.9
69405;BME280;57084;52.046;5.632;2023-01-15T00:26:00;99710;;;9.4;74.0
69405;BME280;57084;52.046;5.632;2023-01-15T00:27:00;99710;;;9.4;74.0
69405;BME280;57084;52.046;5.632;2023-01-15T00:28:00;99710;;;9.4;74.0
69405;BME280;57084;52.046;5.632;2023-01-15T00:29:00;99710;;;9.4;74.0
69405;BME280;57084;52.046;5.632;2023-01-15T00:30:00;99720;;;9.4;73.9
69405;BME280;57084;52.046;5.632;2023-01-15T00:31:00;99720;;;9.4;73.9
69405;BME280;57084;52.046;5.632;2023-01-15T00:32:01;99720;;;9.4;73.9
69405;BME280;57084;52.046;5.632;2023-01-15T00:33:00;99720;;;9.4;73.9
69405;BME280;57084;52.046;5.632;2023-01-15T00:34:00;99720;;;9.4;73.7
69405;BME280;57084;52.046;5.632;2023-01-15T00:35:00;99720;;;9.4;73.7
69405;BME280;57084;52.046;5.632;2023-01-15T00:36:00;99720;;;9.4;73.8
69405;BME280;57084;52.046;5.632;2023-01-15T00:37:00;99720;;;9.4;73.8
69405;BME280;57084;52.046;5.632;2023-01-15T00:38:00;99720;;;9.4;73.8
69405;BME280;57084;52.046;5.632;2023-01-15T00:39:00;99720;;;9.4;73.8
69405;BME280;57084;52.046;5.632;2023-01-15T00:40:00;99710;;;9.4;73.7
69405;BME280;57084;52.046;5.632;2023-01-15T00:41:00;99710;;;9.4;73.7
69405;BME280;57084;52.046;5.632;2023-01-15T00:42:00;99700;;;9.4;73.6
69405;BME280;57084;52.046;5.632;2023-01-15T00:43:00;99700;;;9.4;73.6
69405;BME280;57084;52.046;5.632;2023-01-15T00:44:00;99700;;;9.4;73.4
69405;BME280;57084;52.046;5.632;2023-01-15T00:45:00;99700;;;9.4;73.4
69405;BME280;57084;52.046;5.632;2023-01-15T00:46:00;99700;;;9.4;73.5
69405;BME280;57084;52.046;5.632;2023-01-15T00:47:00;99700;;;9.4;73.5
69405;BME280;57084;52.046;5.632;2023-01-15T00:48:00;99720;;;9.4;73.5
69405;BME280;57084;52.046;5.632;2023-01-15T00:49:00;99720;;;9.4;73.5
69405;BME280;57084;52.046;5.632;2023-01-15T00:50:00;99720;;;9.4;73.4
69405;BME280;57084;52.046;5.632;2023-01-15T00:51:00;99720;;;9.4;73.4
69405;BME280;57084;52.046;5.632;2023-01-15T00:52:00;99710;;;9.4;73.4
69405;BME280;57084;52.046;5.632;2023-01-15T00:53:00;99710;;;9.4;73.4
69405;BME280;57084;52.046;5.632;2023-01-15T00:54:00;99710;;;9.4;73.2
69405;BME280;57084;52.046;5.632;2023-01-15T00:55:00;99710;;;9.4;73.2
69405;BME280;57084;52.046;5.632;2023-01-15T00:56:00;99710;;;9.3;73.3
69405;BME280;57084;52.046;5.632;2023-01-15T00:57:00;99710;;;9.3;73.3
69405;BME280;57084;52.046;5.632;2023-01-15T00:58:00;99710;;;9.3;73.3
69405;BME280;57084;52.046;5.632;2023-01-15T00:59:00;99710;;;9.3;73.3
69405;BME280;57084;52.046;5.632;2023-01-15T01:00:00;99710;;;9.3;73.3
69405;BME280;57084;52.046;5.632;2023-01-15T01:01:00;99710;;;9.3;73.3
69405;BME280;57084;52.046;5.632;2023-01-15T01:02:00;99710;;;9.3;73.4
69405;BME280;57084;52.046;5.632;2023-01-15T01:03:00;99710;;;9.3;73.4
69405;BME280;57084;52.046;5.632;2023-01-15T01:04:00;99710;;;9.3;73.1
69405;BME280;57084;52.046;5.632;2023-01-15T01:05:00;99710;;;9.3;73.1
69405;BME280;57084;52.046;5.632;2023-01-15T01:06:00;99720;;;9.3;73.2
69405;BME280;57084;52.046;5.632;2023-01-15T01:07:00;99720;;;9.3;73.2
69405;BME280;57084;52.046;5.632;2023-01-15T01:08:00;99720;;;9.2;73.3
69405;BME280;57084;52.046;5.632;2023-01-15T01:09:00;99720;;;9.2;73.3
69405;BME280;57084;52.046;5.632;2023-01-15T01:10:00;99720;;;9.2;73.2
69405;BME280;57084;52.046;5.632;2023-01-15T01:11:00;99720;;;9.2;73.2
69405;BME280;57084;52.046;5.632;2023-01-15T01:12:00;99720;;;9.2;73.2
69405;BME280;57084;52.046;5.632;2023-01-15T01:13:00;99720;;;9.2;73.2
69405;BME280;57084;52.046;5.632;2023-01-15T01:14:00;99720;;;9.3;73.0
69405;BME280;57084;52.046;5.632;2023-01-15T01:15:00;99720;;;9.3;73.0
69405;BME280;57084;52.046;5.632;2023-01-15T01:16:00;99720;;;9.2;73.1
69405;BME280;57084;52.046;5.632;2023-01-15T01:17:00;99720;;;9.2;73.1
69405;BME280;57084;52.046;5.632;2023-01-15T01:18:00;99720;;;9.2;73.1
69405;BME280;57084;52.046;5.632;2023-01-15T01:19:01;99720;;;9.2;73.1
69405;BME280;57084;52.046;5.632;2023-01-15T01:20:00;99710;;;9.2;73.0
69405;BME280;57084;52.046;5.632;2023-01-15T01:21:00;99710;;;9.2;73.0
69405;BME280;57084;52.046;5.632;2023-01-15T01:22:00;99710;;;9.2;73.0
69405;BME280;57084;52.046;5.632;2023-01-15T01:23:00;99710;;;9.2;73.0
69405;BME280;57084;52.046;5.632;2023-01-15T01:24:00;99710;;;9.2;72.8
69405;BME280;57084;52.046;5.632;2023-01-15T01:25:00;99710;;;9.2;72.8
69405;BME280;57084;52.046;5.632;2023-01-15T01:26:00;99710;;;9.2;72.8
69405;BME280;57084;52.046;5.632;2023-01-15T01:27:00;99710;;;9.2;72.8
69405;BME280;57084;52.046;5.632;2023-01-15T01:28:00;99710;;;9.1;73.0
69405;BME280;57084;52.046;5.632;2023-01-15T01:29:00;99710;;;9.1;73.0
69405;BME280;57084;52.046;5.632;2023-01-15T01:30:00;99710;;;9.1;72.9
69405;BME280;57084;52.046;5.632;2023-01-15T01:31:03;99710;;;9.1;72.9
69405;BME280;57084;52.046;5.632;2023-01-15T01:32:00;99710;;;9.1;73.0
69405;BME280;57084;52.046;5.632;2023-01-15T01:33:00;99710;;;9.1;73.0
69405;BME280;57084;52.046;5.632;2023-01-15T01:34:00;99710;;;9.1;72.8
69405;BME280;57084;52.046;5.632;2023-01-15T01:35:00;99710;;;9.1;72.8
69405;BME280;57084;52.046;5.632;2023-01-15T01:36:00;99710;;;9.1;72.8
69405;BME280;57084;52.046;5.632;2023-01-15T01:37:00;99710;;;9.1;72.8
69405;BME280;57084;52.046;5.632;2023-01-15T01:38:00;99720;;;9.1;72.9
69405;BME280;57084;52.046;5.632;2023-01-15T01:39:00;99720;;;9.1;72.9
69405;BME280;57084;52.046;5.632;2023-01-15T01:40:00;99720;;;9.1;72.7
69405;BME280;57084;52.046;5.632;2023-01-15T01:41:00;99720;;;9.1;72.7
69405;BME280;57084;52.046;5.632;2023-01-15T01:42:00;99720;;;9.1;72.7
69405;BME280;57084;52.046;5.632;2023-01-15T01:43:00;99720;;;9.1;72.7
69405;BME280;57084;52.046;5.632;2023-01-15T01:44:01;99720;;;9.1;72.6
69405;BME280;57084;52.046;5.632;2023-01-15T01:45:02;99720;;;9.1;72.6
69405;BME280;57084;52.046;5.632;2023-01-15T01:46:00;99720;;;9.1;72.5
69405;BME280;57084;52.046;5.632;2023-01-15T01:47:00;99720;;;9.1;72.5
69405;BME280;57084;52.046;5.632;2023-01-15T01:48:01;99720;;;9.1;72.5
69405;BME280;57084;52.046;5.632;2023-01-15T01:49:01;99720;;;9.1;72.5
69405;BME280;57084;52.046;5.632;2023-01-15T01:50:01;99710;;;9.1;72.4
69405;BME280;57084;52.046;5.632;2023-01-15T01:51:00;99710;;;9.1;72.4
69405;BME280;57084;52.046;5.632;2023-01-15T01:52:00;99730;;;9.1;72.4
69405;BME280;57084;52.046;5.632;2023-01-15T01:53:01;99730;;;9.1;72.4
69405;BME280;57084;52.046;5.632;2023-01-15T01:54:00;99730;;;9.1;72.4
69405;BME280;57084;52.046;5.632;2023-01-15T01:55:00;99730;;;9.1;72.4
69405;BME280;57084;52.046;5.632;2023-01-15T01:56:00;99740;;;9.0;72.3
69405;BME280;57084;52.046;5.632;2023-01-15T01:57:00;99740;;;9.0;72.3
69405;BME280;57084;52.046;5.632;2023-01-15T01:58:00;99730;;;9.0;72.3
69405;BME280;57084;52.046;5.632;2023-01-15T01:59:00;99730;;;9.0;72.3
69405;BME280;57084;52.046;5.632;2023-01-15T02:00:00;99730;;;9.0;72.2
69405;BME280;57084;52.046;5.632;2023-01-15T02:01:00;99730;;;9.0;72.2
69405;BME280;57084;52.046;5.632;2023-01-15T02:02:00;99720;;;9.0;72.2
69405;BME280;57084;52.046;5.632;2023-01-15T02:03:00;99720;;;9.0;72.2
69405;BME280;57084;52.046;5.632;2023-01-15T02:04:00;99730;;;9.0;72.2
69405;BME280;57084;52.046;5.632;2023-01-15T02:05:00;99730;;;9.0;72.2
69405;BME280;57084;52.046;5.632;2023-01-15T02:06:00;99730;;;9.0;72.0
69405;BME280;57084;52.046;5.632;2023-01-15T02:07:00;99730;;;9.0;72.0
69405;BME280;57084;52.046;5.632;2023-01-15T02:08:00;99740;;;9.0;72.0
69405;BME280;57084;52.046;5.632;2023-01-15T02:09:00;99740;;;9.0;72.0
69405;BME280;57084;52.046;5.632;2023-01-15T02:10:00;99720;;;9.0;72.0
69405;BME280;57084;52.046;5.632;2023-01-15T02:11:00;99720;;;9.0;72.0
69405;BME280;57084;52.046;5.632;2023-01-15T02:12:01;99720;;;9.0;72.0
69405;BME280;57084;52.046;5.632;2023-01-15T02:13:01;99720;;;9.0;72.0
69405;BME280;57084;52.046;5.632;2023-01-15T02:14:01;99720;;;9.0;72.0
69405;BME280;57084;52.046;5.632;2023-01-15T02:15:02;99720;;;9.0;72.0
69405;BME280;57084;52.046;5.632;2023-01-15T02:16:02;99730;;;9.0;71.8
69405;BME280;57084;52.046;5.632;2023-01-15T02:17:02;99730;;;9.0;71.8
69405;BME280;57084;52.046;5.632;2023-01-15T02:18:01;99730;;;9.0;71.8
69405;BME280;57084;52.046;5.632;2023-01-15T02:19:02;99730;;;9.0;71.8
69405;BME280;57084;52.046;5.632;2023-01-15T02:20:03;99730;;;9.0;71.6
69405;BME280;57084;52.046;5.632;2023-01-15T02:21:00;99730;;;9.0;71.6
69405;BME280;57084;52.046;5.632;2023-01-15T02:22:01;99720;;;9.0;71.7
69405;BME280;57084;52.046;5.632;2023-01-15T02:23:04;99720;;;9.0;71.7
69405;BME280;57084;52.046;5.632;2023-01-15T02:24:16;99720;;;9.0;71.7
69405;BME280;57084;52.046;5.632;2023-01-15T02:25:03;99720;;;9.0;71.7
69405;BME280;57084;52.046;5.632;2023-01-15T02:26:03;99720;;;8.9;71.6
69405;BME280;57084;52.046;5.632;2023-01-15T02:27:03;99720;;;8.9;71.6
69405;BME280;57084;52.046;5.632;2023-01-15T02:28:00;99720;;;8.9;71.7
69405;BME280;57084;52.046;5.632;2023-01-15T02:29:00;99720;;;8.9;71.7
69405;BME280;57084;52.046;5.632;2023-01-15T02:30:01;99720;;;8.9;71.5
69405;BME280;57084;52.046;5.632;2023-01-15T02:31:01;99720;;;8.9;71.5
69405;BME280;57084;52.046;5.632;2023-01-15T02:32:02;99720;;;8.9;71.6
69405;BME280;57084;52.046;5.632;2023-01-15T02:33:02;99720;;;8.9;71.6
69405;BME280;57084;52.046;5.632;2023-01-15T02:34:01;99710;;;8.9;71.6
69405;BME280;57084;52.046;5.632;2023-01-15T02:35:01;99710;;;8.9;71.6
69405;BME280;57084;52.046;5.632;2023-01-15T02:36:00;99720;;;8.9;71.5
69405;BME280;57084;52.046;5.632;2023-01-15T02:37:00;99720;;;8.9;71.5
69405;BME280;57084;52.046;5.632;2023-01-15T02:38:01;99710;;;8.9;71.5
69405;BME280;57084;52.046;5.632;2023-01-15T02:39:01;99710;;;8.9;71.5
69405;BME280;57084;52.046;5.632;2023-01-15T02:40:00;99710;;;8.9;71.4
69405;BME280;57084;52.046;5.632;2023-01-15T02:41:00;99710;;;8.9;71.4
69405;BME280;57084;52.046;5.632;2023-01-15T02:42:01;99710;;;8.9;71.5
69405;BME280;57084;52.046;5.632;2023-01-15T02:43:00;99710;;;8.9;71.5
69405;BME280;57084;52.046;5.632;2023-01-15T02:44:00;99720;;;8.9;71.5
69405;BME280;57084;52.046;5.632;2023-01-15T02:45:00;99720;;;8.9;71.5
69405;BME280;57084;52.046;5.632;2023-01-15T02:46:00;99710;;;8.9;71.3
69405;BME280;57084;52.046;5.632;2023-01-15T02:47:00;99710;;;8.9;71.3
69405;BME280;57084;52.046;5.632;2023-01-15T02:48:01;99710;;;8.8;71.4
69405;BME280;57084;52.046;5.632;2023-01-15T02:49:00;99710;;;8.8;71.4
69405;BME280;57084;52.046;5.632;2023-01-15T02:50:01;99720;;;8.8;71.3
69405;BME280;57084;52.046;5.632;2023-01-15T02:51:00;99720;;;8.8;71.3
69405;BME280;57084;52.046;5.632;2023-01-15T02:52:01;99710;;;8.8;71.4
69405;BME280;57084;52.046;5.632;2023-01-15T02:53:00;99710;;;8.8;71.4
69405;BME280;57084;52.046;5.632;2023-01-15T02:54:00;99710;;;8.8;71.4
69405;BME280;57084;52.046;5.632;2023-01-15T02:55:03;99710;;;8.8;71.4
69405;BME280;57084;52.046;5.632;2023-01-15T02:56:02;99710;;;8.8;71.3
69405;BME280;57084;52.046;5.632;2023-01-15T02:57:00;99710;;;8.8;71.3
69405;BME280;57084;52.046;5.632;2023-01-15T02:58:01;99700;;;8.8;71.3
69405;BME280;57084;52.046;5.632;2023-01-15T02:59:02;99700;;;8.8;71.3
69405;BME280;57084;52.046;5.632;2023-01-15T03:00:00;99710;;;8.8;71.1
69405;BME280;57084;52.046;5.632;2023-01-15T03:01:00;99710;;;8.8;71.1
69405;BME280;57084;52.046;5.632;2023-01-15T03:02:00;99720;;;8.8;71.2
69405;BME280;57084;52.046;5.632;2023-01-15T03:03:01;99720;;;8.8;71.2
69405;BME280;57084;52.046;5.632;2023-01-15T03:04:01;99710;;;8.8;71.2
69405;BME280;57084;52.046;5.632;2023-01-15T03:05:01;99710;;;8.8;71.2
69405;BME280;57084;52.046;5.632;2023-01-15T03:06:01;99700;;;8.8;71.1
69405;BME280;57084;52.046;5.632;2023-01-15T03:07:02;99700;;;8.8;71.1
69405;BME280;57084;52.046;5.632;2023-01-15T03:08:00;99710;;;8.8;71.1
69405;BME280;57084;52.046;5.632;2023-01-15T03:09:00;99710;;;8.8;71.1
69405;BME280;57084;52.046;5.632;2023-01-15T03:10:00;99690;;;8.8;70.9
69405;BME280;57084;52.046;5.632;2023-01-15T03:11:01;99690;;;8.8;70.9
69405;BME280;57084;52.046;5.632;2023-01-15T03:12:02;99700;;;8.8;71.0
69405;BME280;57084;52.046;5.632;2023-01-15T03:13:00;99700;;;8.8;71.0
69405;BME280;57084;52.046;5.632;2023-01-15T03:14:01;99690;;;8.8;71.1
69405;BME280;57084;52.046;5.632;2023-01-15T03:15:02;99690;;;8.8;71.1
69405;BME280;57084;52.046;5.632;2023-01-15T03:16:00;99690;;;8.7;70.9
69405;BME280;57084;52.046;5.632;2023-01-15T03:17:01;99690;;;8.7;70.9
69405;BME280;57084;52.046;5.632;2023-01-15T03:18:00;99690;;;8.7;71.0
69405;BME280;57084;52.046;5.632;2023-01-15T03:19:01;99690;;;8.7;71.0
69405;BME280;57084;52.046;5.632;2023-01-15T03:20:01;99690;;;8.8;70.8
69405;BME280;57084;52.046;5.632;2023-01-15T03:21:01;99690;;;8.8;70.8
69405;BME280;57084;52.046;5.632;2023-01-15T03:22:01;99690;;;8.7;70.9
69405;BME280;57084;52.046;5.632;2023-01-15T03:23:01;99690;;;8.7;70.9
69405;BME280;57084;52.046;5.632;2023-01-15T03:24:00;99690;;;8.7;70.9
69405;BME280;57084;52.046;5.632;2023-01-15T03:25:01;99690;;;8.7;70.9
69405;BME280;57084;52.046;5.632;2023-01-15T03:26:00;99700;;;8.7;70.9
69405;BME280;57084;52.046;5.632;2023-01-15T03:27:00;99700;;;8.7;70.9
69405;BME280;57084;52.046;5.632;2023-01-15T03:28:00;99700;;;8.7;70.9
69405;BME280;57084;52.046;5.632;2023-01-15T03:29:01;99700;;;8.7;70.9
69405;BME280;57084;52.046;5.632;2023-01-15T03:30:03;99710;;;8.7;70.8
69405;BME280;57084;52.046;5.632;2023-01-15T03:31:00;99710;;;8.7;70.8
69405;BME280;57084;52.046;5.632;2023-01-15T03:32:00;99700;;;8.7;70.8
69405;BME280;57084;52.046;5.632;2023-01-15T03:33:00;99700;;;8.7;70.8
69405;BME280;57084;52.046;5.632;2023-01-15T03:34:00;99690;;;8.7;70.8
69405;BME280;57084;52.046;5.632;2023-01-15T03:35:00;99690;;;8.7;70.8
69405;BME280;57084;52.046;5.632;2023-01-15T03:36:00;99700;;;8.7;70.7
69405;BME280;57084;52.046;5.632;2023-01-15T03:37:00;99700;;;8.7;70.7
69405;BME280;57084;52.046;5.632;2023-01-15T03:38:00;99700;;;8.7;70.7
69405;BME280;57084;52.046;5.632;2023-01-15T03:39:00;99700;;;8.7;70.7
69405;BME280;57084;52.046;5.632;2023-01-15T03:40:00;99690;;;8.7;70.7
69405;BME280;57084;52.046;5.632;2023-01-15T03:41:04;99690;;;8.7;70.7
69405;BME280;57084;52.046;5.632;2023-01-15T03:42:03;99700;;;8.7;70.7
69405;BME280;57084;52.046;5.632;2023-01-15T03:43:00;99700;;;8.7;70.7
69405;BME280;57084;52.046;5.632;2023-01-15T03:44:01;99710;;;8.7;70.8
69405;BME280;57084;52.046;5.632;2023-01-15T03:45:01;99710;;;8.7;70.8
69405;BME280;57084;52.046;5.632;2023-01-15T03:46:01;99690;;;8.7;70.6
69405;BME280;57084;52.046;5.632;2023-01-15T03:47:03;99690;;;8.7;70.6
69405;BME280;57084;52.046;5.632;2023-01-15T03:48:00;99700;;;8.7;70.7
69405;BME280;57084;52.046;5.632;2023-01-15T03:49:00;99700;;;8.7;70.7
69405;BME280;57084;52.046;5.632;2023-01-15T03:50:01;99710;;;8.7;70.6
69405;BME280;57084;52.046;5.632;2023-01-15T03:51:01;99710;;;8.7;70.6
69405;BME280;57084;52.046;5.632;2023-01-15T03:52:00;99700;;;8.6;70.6
69405;BME280;57084;52.046;5.632;2023-01-15T03:53:03;99700;;;8.6;70.6
69405;BME280;57084;52.046;5.632;2023-01-15T03:54:00;99710;;;8.6;70.7
69405;BME280;57084;52.046;5.632;2023-01-15T03:55:03;99710;;;8.6;70.7
69405;BME280;57084;52.046;5.632;2023-01-15T03:56:00;99710;;;8.6;70.6
69405;BME280;57084;52.046;5.632;2023-01-15T03:57:01;99710;;;8.6;70.6
69405;BME280;57084;52.046;5.632;2023-01-15T03:58:01;99710;;;8.6;70.6
69405;BME280;57084;52.046;5.632;2023-01-15T03:59:01;99710;;;8.6;70.6
69405;BME280;57084;52.046;5.632;2023-01-15T04:00:01;99700;;;8.6;70.6
69405;BME280;57084;52.046;5.632;2023-01-15T04:01:00;99700;;;8.6;70.6
69405;BME280;57084;52.046;5.632;2023-01-15T04:02:00;99700;;;8.6;70.6
69405;BME280;57084;52.046;5.632;2023-01-15T04:03:00;99700;;;8.6;70.6
69405;BME280;57084;52.046;5.632;2023-01-15T04:04:00;99700;;;8.6;70.6
69405;BME280;57084;52.046;5.632;2023-01-15T04:05:00;99700;;;8.6;70.6
69405;BME280;57084;52.046;5.632;2023-01-15T04:06:00;99690;;;8.6;70.5
69405;BME280;57084;52.046;5.632;2023-01-15T04:07:00;99690;;;8.6;70.5
69405;BME280;57084;52.046;5.632;2023-01-15T04:08:00;99680;;;8.6;70.6
69405;BME280;57084;52.046;5.632;2023-01-15T04:09:00;99680;;;8.6;70.6
69405;BME280;57084;52.046;5.632;2023-01-15T04:10:00;99680;;;8.6;70.6
69405;BME280;57084;52.046;5.632;2023-01-15T04:11:00;99680;;;8.6;70.6
69405;BME280;57084;52.046;5.632;2023-01-15T04:12:00;99680;;;8.6;70.5
69405;BME280;57084;52.046;5.632;2023-01-15T04:13:00;99680;;;8.6;70.5
69405;BME280;57084;52.046;5.632;2023-01-15T04:14:00;99680;;;8.6;70.6
69405;BME280;57084;52.046;5.632;2023-01-15T04:15:00;99680;;;8.6;70.6
69405;BME280;57084;52.046;5.632;2023-01-15T04:16:00;99680;;;8.6;70.5
69405;BME280;57084;52.046;5.632;2023-01-15T04:17:00;99680;;;8.6;70.5
69405;BME280;57084;52.046;5.632;2023-01-15T04:18:00;99680;;;8.5;70.5
69405;BME280;57084;52.046;5.632;2023-01-15T04:19:00;99680;;;8.5;70.5
69405;BME280;57084;52.046;5.632;2023-01-15T04:20:00;99690;;;8.5;70.6
69405;BME280;57084;52.046;5.632;2023-01-15T04:21:00;99690;;;8.5;70.6
69405;BME280;57084;52.046;5.632;2023-01-15T04:22:00;99690;;;8.5;70.5
69405;BME280;57084;52.046;5.632;2023-01-15T04:23:00;99690;;;8.5;70.5
69405;BME280;57084;52.046;5.632;2023-01-15T04:24:00;99690;;;8.5;70.6
69405;BME280;57084;52.046;5.632;2023-01-15T04:25:00;99690;;;8.5;70.6
69405;BME280;57084;52.046;5.632;2023-01-15T04:26:00;99690;;;8.5;70.5
69405;BME280;57084;52.046;5.632;2023-01-15T04:27:00;99690;;;8.5;70.5
69405;BME280;57084;52.046;5.632;2023-01-15T04:28:00;99690;;;8.4;70.6
69405;BME280;57084;52.046;5.632;2023-01-15T04:29:00;99690;;;8.4;70.6
69405;BME280;57084;52.046;5.632;2023-01-15T04:30:00;99690;;;8.4;70.6
69405;BME280;57084;52.046;5.632;2023-01-15T04:31:00;99690;;;8.4;70.6
69405;BME280;57084;52.046;5.632;2023-01-15T04:32:00;99690;;;8.4;70.6
69405;BME280;57084;52.046;5.632;2023-01-15T04:33:00;99690;;;8.4;70.6
69405;BME280;57084;52.046;5.632;2023-01-15T04:34:00;99690;;;8.4;70.7
69405;BME280;57084;52.046;5.632;2023-01-15T04:35:00;99690;;;8.4;70.7
69405;BME280;57084;52.046;5.632;2023-01-15T04:36:00;99690;;;8.4;70.5
69405;BME280;57084;52.046;5.632;2023-01-15T04:37:00;99690;;;8.4;70.5
69405;BME280;57084;52.046;5.632;2023-01-15T04:38:00;99690;;;8.4;70.6
69405;BME280;57084;52.046;5.632;2023-01-15T04:39:00;99690;;;8.4;70.6
69405;BME280;57084;52.046;5.632;2023-01-15T04:40:00;99690;;;8.4;70.6
69405;BME280;57084;52.046;5.632;2023-01-15T04:41:00;99690;;;8.4;70.6
69405;BME280;57084;52.046;5.632;2023-01-15T04:42:00;99690;;;8.3;70.6
69405;BME280;57084;52.046;5.632;2023-01-15T04:43:00;99690;;;8.3;70.6
69405;BME280;57084;52.046;5.632;2023-01-15T04:44:00;99690;;;8.3;70.6
69405;BME280;57084;52.046;5.632;2023-01-15T04:45:00;99690;;;8.3;70.6
69405;BME280;57084;52.046;5.632;2023-01-15T04:46:00;99690;;;8.3;70.5
69405;BME280;57084;52.046;5.632;2023-01-15T04:47:00;99690;;;8.3;70.5
69405;BME280;57084;52.046;5.632;2023-01-15T04:48:00;99690;;;8.3;70.5
69405;BME280;57084;52.046;5.632;2023-01-15T04:49:00;99690;;;8.3;70.5
69405;BME280;57084;52.046;5.632;2023-01-15T04:50:00;99680;;;8.3;70.5
69405;BME280;57084;52.046;5.632;2023-01-15T04:51:01;99680;;;8.3;70.5
69405;BME280;57084;52.046;5.632;2023-01-15T04:52:00;99680;;;8.3;70.4
69405;BME280;57084;52.046;5.632;2023-01-15T04:53:00;99680;;;8.3;70.4
69405;BME280;57084;52.046;5.632;2023-01-15T04:54:00;99680;;;8.3;70.5
69405;BME280;57084;52.046;5.632;2023-01-15T04:55:00;99680;;;8.3;70.5
69405;BME280;57084;52.046;5.632;2023-01-15T04:56:00;99680;;;8.3;70.4
69405;BME280;57084;52.046;5.632;2023-01-15T04:57:00;99680;;;8.3;70.4
69405;BME280;57084;52.046;5.632;2023-01-15T04:58:00;99680;;;8.3;70.5
69405;BME280;57084;52.046;5.632;2023-01-15T04:59:00;99680;;;8.3;70.5
69405;BME280;57084;52.046;5.632;2023-01-15T05:00:00;99680;;;8.3;70.4
69405;BME280;57084;52.046;5.632;2023-01-15T05:01:00;99680;;;8.3;70.4
69405;BME280;57084;52.046;5.632;2023-01-15T05:02:00;99680;;;8.2;70.3
69405;BME280;57084;52.046;5.632;2023-01-15T05:03:00;99680;;;8.2;70.3
69405;BME280;57084;52.046;5.632;2023-01-15T05:04:00;99690;;;8.2;70.4
69405;BME280;57084;52.046;5.632;2023-01-15T05:05:00;99690;;;8.2;70.4
69405;BME280;57084;52.046;5.632;2023-01-15T05:06:00;99690;;;8.2;70.3
69405;BME280;57084;52.046;5.632;2023-01-15T05:07:00;99690;;;8.2;70.3
69405;BME280;57084;52.046;5.632;2023-01-15T05:08:00;99690;;;8.2;70.4
69405;BME280;57084;52.046;5.632;2023-01-15T05:09:00;99690;;;8.2;70.4
69405;BME280;57084;52.046;5.632;2023-01-15T05:10:00;99690;;;8.2;70.5
69405;BME280;57084;52.046;5.632;2023-01-15T05:11:00;99690;;;8.2;70.5
69405;BME280;57084;52.046;5.632;2023-01-15T05:12:00;99690;;;8.2;70.4
69405;BME280;57084;52.046;5.632;2023-01-15T05:13:00;99690;;;8.2;70.4
69405;BME280;57084;52.046;5.632;2023-01-15T05:14:00;99690;;;8.2;70.4
69405;BME280;57084;52.046;5.632;2023-01-15T05:15:00;99690;;;8.2;70.4
69405;BME280;57084;52.046;5.632;2023-01-15T05:16:08;99690;;;8.2;70.3
69405;BME280;57084;52.046;5.632;2023-01-15T05:17:00;99690;;;8.2;70.3
69405;BME280;57084;52.046;5.632;2023-01-15T05:18:00;99680;;;8.2;70.4
69405;BME280;57084;52.046;5.632;2023-01-15T05:19:01;99680;;;8.2;70.4
69405;BME280;57084;52.046;5.632;2023-01-15T05:20:00;99680;;;8.1;70.5
69405;BME280;57084;52.046;5.632;2023-01-15T05:21:00;99680;;;8.1;70.5
69405;BME280;57084;52.046;5.632;2023-01-15T05:22:00;99680;;;8.1;70.5
69405;BME280;57084;52.046;5.632;2023-01-15T05:23:00;99680;;;8.1;70.5
69405;BME280;57084;52.046;5.632;2023-01-15T05:24:00;99680;;;8.1;70.5
69405;BME280;57084;52.046;5.632;2023-01-15T05:25:00;99680;;;8.1;70.5
69405;BME280;57084;52.046;5.632;2023-01-15T05:26:01;99680;;;8.2;70.4
69405;BME280;57084;52.046;5.632;2023-01-15T05:27:00;99680;;;8.2;70.4
69405;BME280;57084;52.046;5.632;2023-01-15T05:28:00;99670;;;8.1;70.4
69405;BME280;57084;52.046;5.632;2023-01-15T05:29:00;99670;;;8.1;70.4
69405;BME280;57084;52.046;5.632;2023-01-15T05:30:00;99670;;;8.1;70.5
69405;BME280;57084;52.046;5.632;2023-01-15T05:31:04;99670;;;8.1;70.5
69405;BME280;57084;52.046;5.632;2023-01-15T05:32:00;99670;;;8.1;70.5
69405;BME280;57084;52.046;5.632;2023-01-15T05:33:00;99670;;;8.1;70.5
69405;BME280;57084;52.046;5.632;2023-01-15T05:34:00;99670;;;8.1;70.5
69405;BME280;57084;52.046;5.632;2023-01-15T05:35:00;99670;;;8.1;70.5
69405;BME280;57084;52.046;5.632;2023-01-15T05:36:00;99660;;;8.1;70.5
69405;BME280;57084;52.046;5.632;2023-01-15T05:37:00;99660;;;8.1;70.5
69405;BME280;57084;52.046;5.632;2023-01-15T05:38:00;99660;;;8.0;70.5
69405;BME280;57084;52.046;5.632;2023-01-15T05:39:00;99660;;;8.0;70.5
69405;BME280;57084;52.046;5.632;2023-01-15T05:40:00;99660;;;8.0;70.6
69405;BME280;57084;52.046;5.632;2023-01-15T05:41:02;99660;;;8.0;70.6
69405;BME280;57084;52.046;5.632;2023-01-15T05:42:00;99660;;;8.0;70.5
69405;BME280;57084;52.046;5.632;2023-01-15T05:43:00;99660;;;8.0;70.5
69405;BME280;57084;52.046;5.632;2023-01-15T05:44:01;99660;;;8.0;70.5
69405;BME280;57084;52.046;5.632;2023-01-15T05:45:00;99660;;;8.0;70.5